Terminal Aerodrome Forecast
Issued by NWS

Home | Current Version | Previous Version | Text Only | Print | Product List | Glossary On
Versions: 1 2 3 4 5 6 7 8 9 10 11 12
000
FTUS44 KSJT 290520
TAFBBD
TAF
KBBD 290520Z 2906/3006 12008KT P6SM BKN250
     FM290900 15013G20KT P6SM VCSH BKN025
     FM291200 16011KT P6SM BKN015
     FM291500 23012KT P6SM BKN250
     FM292100 30012G20KT P6SM SCT250
     FM300100 33015G25KT P6SM VCSH BKN050
      AMD NOT SKED=

USA.gov is the U.S. government's official web portal to all federal, state and local government web resources and services.